Time;durP1;ratioP1;P1;durP2;ratioP2;P2;SDS_P1;SDS_P2;PMS_P1;PMS_P2;Temp;Humidity;BMP_temperature;BMP_pressure;BME280_temperature;BME280_humidity;BME280_pressure;Samples;Min_cycle;Max_cycle;Signal;HPM_P1;HPM_P2
2022/06/27 00:01:49;;;;;;;6.50;4.97;;;21.80;99.90;;;;;;10302295;28;20191;-78
2022/06/27 00:07:11;;;;;;;6.45;5.22;;;21.80;99.90;;;;;;10305651;28;20229;-77
2022/06/27 00:12:33;;;;;;;6.45;5.50;;;21.70;99.90;;;;;;10320610;28;20205;-78
2022/06/27 00:17:54;;;;;;;6.57;4.97;;;21.70;99.90;;;;;;10320425;28;20208;-77
2022/06/27 00:23:15;;;;;;;6.45;4.57;;;21.60;99.90;;;;;;10321312;28;20186;-78
2022/06/27 00:28:37;;;;;;;5.57;4.22;;;21.60;99.90;;;;;;10321145;28;20249;-79
2022/06/27 00:33:58;;;;;;;5.68;5.00;;;21.50;99.90;;;;;;10290242;28;20245;-77
2022/06/27 00:39:19;;;;;;;4.97;4.30;;;21.50;1.00;;;;;;10320729;28;20198;-78
2022/06/27 00:44:43;;;;;;;4.95;4.32;;;21.40;99.90;;;;;;10312023;28;20213;-77
2022/06/27 00:50:05;;;;;;;9.52;6.03;;;;;;;;;;10346498;28;20493;-78
2022/06/27 00:55:26;;;;;;;7.30;5.30;;;21.40;1.00;;;;;;10332558;28;20269;-79
2022/06/27 01:00:48;;;;;;;5.72;4.85;;;21.40;1.00;;;;;;10302954;28;20532;-78
2022/06/27 01:06:09;;;;;;;5.38;4.65;;;21.40;1.00;;;;;;10308315;28;20540;-78
2022/06/27 01:11:31;;;;;;;5.68;4.43;;;21.40;1.00;;;;;;10305413;28;20423;-78
2022/06/27 01:16:53;;;;;;;5.30;4.70;;;21.30;1.00;;;;;;10303710;28;20257;-80
2022/06/27 01:22:16;;;;;;;5.10;4.60;;;21.30;1.00;;;;;;10291228;28;20217;-78
2022/06/27 01:27:38;;;;;;;6.10;4.80;;;21.30;1.00;;;;;;10304244;28;20269;-78
2022/06/27 01:33:01;;;;;;;5.07;4.57;;;21.20;1.00;;;;;;10288112;28;20234;-78
2022/06/27 01:38:22;;;;;;;8.07;4.43;;;21.20;1.00;;;;;;10318276;28;20269;-78
2022/06/27 01:43:47;;;;;;;4.80;4.30;;;21.20;1.00;;;;;;10305112;28;20249;-77
2022/06/27 01:49:10;;;;;;;5.35;4.50;;;21.30;1.00;;;;;;10357661;28;20194;-77
2022/06/27 01:54:32;;;;;;;4.85;4.22;;;21.20;1.00;;;;;;10338004;28;20210;-76
2022/06/27 01:59:53;;;;;;;4.95;4.45;;;21.10;1.00;;;;;;10317778;28;20206;-77
2022/06/27 02:05:16;;;;;;;4.95;4.43;;;21.20;1.00;;;;;;10302668;28;20301;-78
2022/06/27 02:10:37;;;;;;;8.95;3.95;;;21.10;1.00;;;;;;10317281;28;20190;-77
2022/06/27 02:16:11;;;;;;;5.20;4.70;;;21.00;1.00;;;;;;10316928;28;20206;-77
2022/06/27 02:21:32;;;;;;;6.65;4.60;;;21.00;1.00;;;;;;10302024;28;20202;-77
2022/06/27 02:32:14;;;;;;;5.97;4.72;;;20.90;1.00;;;;;;10285666;28;20563;-77
2022/06/27 02:37:37;;;;;;;4.95;4.45;;;20.90;1.00;;;;;;10271919;28;20564;-77
2022/06/27 02:43:00;;;;;;;4.70;4.30;;;21.00;1.00;;;;;;10299142;28;20208;-78
2022/06/27 02:48:30;;;;;;;5.35;4.72;;;21.00;1.00;;;;;;10301300;28;20583;-77
2022/06/27 02:54:11;;;;;;;4.82;4.32;;;21.00;1.00;;;;;;10287840;28;20199;-77
2022/06/27 02:59:51;;;;;;;7.35;4.57;;;21.00;1.00;;;;;;10301438;28;20560;-78
2022/06/27 03:05:14;;;;;;;6.07;4.80;;;21.00;1.00;;;;;;10283937;28;20300;-78
2022/06/27 03:10:35;;;;;;;5.30;4.80;;;21.10;1.00;;;;;;10301467;28;20233;-77
2022/06/27 03:15:56;;;;;;;6.38;4.85;;;21.10;1.00;;;;;;10281550;28;20395;-78
2022/06/27 03:21:20;;;;;;;5.65;4.82;;;21.20;1.00;;;;;;10293995;28;20509;-77
2022/06/27 03:26:49;;;;;;;5.55;4.85;;;21.20;1.00;;;;;;10284088;28;20223;-77
2022/06/27 03:32:13;;;;;;;5.82;4.75;;;21.30;1.00;;;;;;10283993;28;20317;-79
2022/06/27 03:37:42;;;;;;;7.22;5.13;;;21.30;1.00;;;;;;10304614;28;20194;-79
2022/06/27 03:43:04;;;;;;;5.50;4.90;;;21.30;1.00;;;;;;10322632;28;20380;-80
2022/06/27 03:54:17;;;;;;;5.78;4.85;;;21.50;1.00;;;;;;10308186;28;20191;-83
2022/06/27 03:59:39;;;;;;;7.03;5.00;;;21.50;1.00;;;;;;10308479;28;20195;-82
2022/06/27 04:05:00;;;;;;;5.60;5.05;;;21.60;1.00;;;;;;10307068;28;20233;-81
2022/06/27 04:10:21;;;;;;;6.65;5.68;;;21.70;1.00;;;;;;10307885;28;20202;-79
2022/06/27 04:15:43;;;;;;;7.68;6.22;;;21.70;1.00;;;;;;10303273;28;20192;-79
2022/06/27 04:21:24;;;;;;;11.05;5.63;;;21.80;1.00;;;;;;10318876;28;20501;-82
2022/06/27 04:27:05;;;;;;;7.97;6.07;;;21.80;1.00;;;;;;10306801;28;20222;-78
2022/06/27 04:32:28;;;;;;;7.32;5.78;;;21.90;1.00;;;;;;10276912;28;20533;-81
2022/06/27 04:37:49;;;;;;;6.25;5.65;;;21.90;1.00;;;;;;10306668;28;20201;-83
2022/06/27 04:43:44;;;;;;;8.77;5.65;;;22.00;1.00;;;;;;10307202;28;20190;-82
2022/06/27 04:49:05;;;;;;;7.70;5.85;;;22.10;1.00;;;;;;10306470;28;20575;-82
2022/06/27 04:54:27;;;;;;;6.07;5.45;;;22.20;1.00;;;;;;10319517;28;20190;-83
2022/06/27 04:59:49;;;;;;;12.35;5.68;;;22.30;1.00;;;;;;10279456;29;20199;-82
2022/06/27 05:05:31;;;;;;;9.10;5.32;;;;;;;;;;10297387;28;20248;-82
2022/06/27 05:10:52;;;;;;;6.70;5.45;;;22.50;1.00;;;;;;10305336;28;20202;-79
2022/06/27 05:16:16;;;;;;;5.95;5.35;;;22.60;1.00;;;;;;10318255;28;20211;-78
2022/06/27 05:21:37;;;;;;;9.68;6.18;;;22.80;1.00;;;;;;10304892;28;20249;-77
2022/06/27 05:26:59;;;;;;;6.63;5.45;;;22.80;99.90;;;;;;10287746;28;20232;-81
2022/06/27 05:32:20;;;;;;;7.97;5.65;;;22.90;99.90;;;;;;10303853;28;20231;-77
2022/06/27 05:37:46;;;;;;;9.70;5.68;;;23.00;99.90;;;;;;10303902;28;20293;-78
2022/06/27 05:43:08;;;;;;;12.05;5.80;;;23.20;99.90;;;;;;10303720;28;20225;-77
2022/06/27 05:48:30;;;;;;;7.40;4.88;;;23.30;99.90;;;;;;10343373;28;20217;-77
2022/06/27 05:54:14;;;;;;;9.25;5.95;;;23.40;99.90;;;;;;10335942;28;20190;-79
2022/06/27 05:59:35;;;;;;;8.00;5.63;;;23.60;99.90;;;;;;10286533;28;20253;-77
2022/06/27 06:04:57;;;;;;;7.60;5.82;;;23.80;99.90;;;;;;10285966;28;20516;-75
2022/06/27 06:10:20;;;;;;;7.03;5.80;;;24.00;9.80;;;;;;10317431;28;20198;-75
2022/06/27 06:15:42;;;;;;;8.32;5.50;;;24.20;1.00;;;;;;10303997;28;20198;-75
2022/06/27 06:21:04;;;;;;;7.55;5.82;;;24.30;1.00;;;;;;10310529;28;20198;-81
2022/06/27 06:26:27;;;;;;;10.07;5.57;;;24.50;1.00;;;;;;10262051;29;20288;-77
2022/06/27 06:31:49;;;;;;;6.25;5.25;;;24.80;1.00;;;;;;10277948;28;20222;-77
2022/06/27 06:37:15;;;;;;;11.93;6.05;;;25.00;1.00;;;;;;10289381;28;20246;-76
2022/06/27 06:42:36;;;;;;;6.25;5.65;;;25.40;99.90;;;;;;10301212;28;20198;-78
2022/06/27 06:48:24;;;;;;;9.07;5.47;;;26.00;1.00;;;;;;10312185;28;20233;-83
2022/06/27 06:53:47;;;;;;;7.72;5.40;;;26.50;99.90;;;;;;10297909;28;20202;-79
2022/06/27 06:59:09;;;;;;;6.63;5.78;;;27.10;1.00;;;;;;10312095;28;20439;-81
2022/06/27 07:04:31;;;;;;;12.13;5.53;;;27.70;1.00;;;;;;10304625;28;20202;-81
2022/06/27 07:09:54;;;;;;;7.38;5.47;;;28.20;44.30;;;;;;10309537;28;20369;-78
2022/06/27 07:15:16;;;;;;;11.40;5.25;;;28.80;1.00;;;;;;10310941;28;20206;-79
2022/06/27 07:20:39;;;;;;;7.82;5.20;;;29.30;1.00;;;;;;10290297;28;20572;-80
2022/06/27 07:26:00;;;;;;;7.82;5.30;;;29.60;1.00;;;;;;10282523;28;20280;-78
2022/06/27 07:31:22;;;;;;;9.95;5.00;;;29.80;99.90;;;;;;10307859;28;20249;-80
2022/06/27 07:36:44;;;;;;;6.40;4.30;;;30.30;1.00;;;;;;10278130;28;20217;-79
2022/06/27 07:42:06;;;;;;;7.18;4.78;;;30.70;1.00;;;;;;10277721;28;20273;-77
2022/06/27 07:47:27;;;;;;;7.53;4.22;;;30.70;99.90;;;;;;10340567;28;20288;-83
2022/06/27 07:58:38;;;;;;;5.10;3.90;;;31.10;1.00;;;;;;10278300;28;20210;-81
2022/06/27 08:04:01;;;;;;;6.50;4.45;;;31.30;1.00;;;;;;10256991;28;20206;-82
2022/06/27 08:09:23;;;;;;;8.68;3.90;;;31.50;1.00;;;;;;10292394;28;20241;-79
2022/06/27 08:14:45;;;;;;;6.03;3.58;;;31.60;1.00;;;;;;10304894;28;20218;-79
2022/06/27 08:20:11;;;;;;;6.13;4.25;;;32.00;1.00;;;;;;10292421;28;20225;-80
2022/06/27 08:25:34;;;;;;;11.13;4.35;;;32.30;1.00;;;;;;10313720;28;20273;-77
2022/06/27 08:31:00;;;;;;;7.30;3.85;;;32.70;1.00;;;;;;10314227;28;20234;-79
2022/06/27 08:36:23;;;;;;;6.15;3.65;;;32.90;1.00;;;;;;10314625;28;20229;-83
2022/06/27 08:41:46;;;;;;;7.68;3.25;;;33.40;1.00;;;;;;10300625;28;20199;-79
2022/06/27 08:47:07;;;;;;;4.13;3.45;;;33.50;99.90;;;;;;10343760;28;20299;-77
2022/06/27 08:52:29;;;;;;;9.40;3.40;;;33.50;99.90;;;;;;10308746;28;20202;-82
2022/06/27 08:57:51;;;;;;;3.60;3.33;;;33.70;99.90;;;;;;10284602;28;20508;-78
2022/06/27 09:03:17;;;;;;;4.22;3.28;;;34.10;99.90;;;;;;10297889;28;20284;-77
2022/06/27 09:09:03;;;;;;;3.78;3.17;;;34.30;99.90;;;;;;10310900;28;20536;-84
2022/06/27 09:14:31;;;;;;;6.88;4.22;;;;;;;;;;10291947;28;20198;-80
2022/06/27 09:19:55;;;;;;;8.32;3.53;;;34.60;99.90;;;;;;10299174;28;20205;-82
2022/06/27 09:25:20;;;;;;;4.28;3.45;;;34.30;99.90;;;;;;10272089;28;20255;-79
2022/06/27 09:30:42;;;;;;;4.25;3.22;;;34.20;99.90;;;;;;10312124;28;20250;-78
2022/06/27 09:36:11;;;;;;;5.22;3.85;;;33.50;99.90;;;;;;10312203;28;20198;-80
2022/06/27 09:41:34;;;;;;;5.32;3.50;;;34.00;99.90;;;;;;10262382;28;20282;-80
2022/06/27 09:47:20;;;;;;;3.83;3.30;;;34.40;99.90;;;;;;10315144;28;20229;-76
2022/06/27 09:52:45;;;;;;;8.25;3.47;;;33.90;99.90;;;;;;10311360;28;20202;-75
2022/06/27 09:58:10;;;;;;;10.65;3.38;;;34.10;99.90;;;;;;10311263;28;20206;-76
2022/06/27 10:03:36;;;;;;;3.67;3.13;;;33.90;99.90;;;;;;10314281;28;20438;-76
2022/06/27 10:09:01;;;;;;;7.47;3.22;;;33.70;99.90;;;;;;10300321;28;20238;-76
2022/06/27 10:14:26;;;;;;;5.70;3.28;;;34.30;99.90;;;;;;10286881;28;20222;-76
2022/06/27 10:20:07;;;;;;;6.68;3.03;;;33.80;99.90;;;;;;10314195;28;20226;-76
2022/06/27 10:32:46;;;;;;;5.80;3.47;;;33.90;99.90;;;;;;10294974;28;20579;-83
2022/06/27 10:45:28;;;;;;;5.80;3.50;;;33.70;99.90;;;;;;10294043;28;20560;-80
2022/06/27 10:50:56;;;;;;;3.92;3.17;;;33.70;99.90;;;;;;10285081;28;20222;-77
2022/06/27 10:56:29;;;;;;;7.30;3.65;;;33.00;99.90;;;;;;10265423;28;20513;-77
2022/06/27 11:01:52;;;;;;;5.72;3.28;;;32.80;99.90;;;;;;10294807;28;20250;-83
2022/06/27 11:07:15;;;;;;;4.00;3.22;;;33.20;99.90;;;;;;10306342;28;20513;-81
2022/06/27 11:12:37;;;;;;;7.63;3.83;;;32.60;99.90;;;;;;10304275;28;20209;-76
2022/06/27 11:18:07;;;;;;;4.75;3.40;;;32.40;99.90;;;;;;10287493;28;20198;-83
2022/06/27 11:23:30;;;;;;;4.03;3.25;;;32.80;99.90;;;;;;10296216;28;20201;-82
2022/06/27 11:34:49;;;;;;;5.53;3.50;;;33.50;99.90;;;;;;10230911;29;20491;-76
2022/06/27 11:40:14;;;;;;;6.80;3.78;;;33.40;99.90;;;;;;10232445;29;20215;-83
2022/06/27 11:45:41;;;;;;;9.13;3.70;;;33.90;99.90;;;;;;10241832;29;20215;-77
2022/06/27 11:51:18;;;;;;;7.93;4.30;;;33.40;99.90;;;;;;10249448;29;20242;-80
2022/06/27 11:56:42;;;;;;;3.85;3.30;;;33.30;99.90;;;;;;10252499;29;20574;-84
2022/06/27 12:02:04;;;;;;;7.03;3.95;;;33.70;99.90;;;;;;10232578;29;20270;-82
2022/06/27 12:07:25;;;;;;;7.55;3.45;;;33.90;99.90;;;;;;10277462;28;20570;-78
2022/06/27 12:12:47;;;;;;;5.07;2.97;;;34.20;99.90;;;;;;10286059;28;20210;-80
2022/06/27 12:18:12;;;;;;;4.80;3.42;;;34.20;99.90;;;;;;10302712;28;20280;-79
2022/06/27 12:23:34;;;;;;;8.85;4.07;;;33.60;99.90;;;;;;10318388;28;20257;-80
2022/06/27 12:28:56;;;;;;;3.63;3.05;;;33.70;99.90;;;;;;10261382;29;20235;-83
2022/06/27 12:34:19;;;;;;;7.47;2.88;;;33.20;99.90;;;;;;10284647;28;20236;-83
2022/06/27 12:39:40;;;;;;;7.13;3.42;;;33.30;99.90;;;;;;10300114;28;20350;-84
2022/06/27 12:45:02;;;;;;;4.03;2.80;;;33.00;99.90;;;;;;10315789;28;20520;-85
2022/06/27 12:50:24;;;;;;;6.53;3.22;;;33.00;99.90;;;;;;10285213;28;20229;-79
2022/06/27 12:55:46;;;;;;;4.68;3.08;;;32.30;99.90;;;;;;10312510;28;20244;-83
2022/06/27 13:01:09;;;;;;;5.10;3.00;;;32.40;99.90;;;;;;10312063;28;20203;-81
2022/06/27 13:06:30;;;;;;;8.38;3.13;;;32.40;99.90;;;;;;10292017;28;20226;-80
2022/06/27 13:11:51;;;;;;;5.55;3.00;;;32.10;99.90;;;;;;10283485;28;20194;-80
2022/06/27 13:17:14;;;;;;;5.05;2.70;;;31.70;99.90;;;;;;10314996;28;20291;-84
2022/06/27 13:22:36;;;;;;;8.25;3.75;;;31.70;99.90;;;;;;10332832;28;20198;-81
2022/06/27 13:27:58;;;;;;;2.83;2.63;;;31.70;99.90;;;;;;10299506;28;20477;-80
2022/06/27 13:33:19;;;;;;;4.05;3.03;;;31.80;99.90;;;;;;10283213;28;20234;-84
2022/06/27 13:38:41;;;;;;;5.03;2.80;;;32.00;99.90;;;;;;10297411;28;20262;-84
2022/06/27 13:44:02;;;;;;;3.75;3.30;;;32.30;99.90;;;;;;10296895;28;20229;-79
2022/06/27 13:49:24;;;;;;;9.15;2.80;;;32.20;99.90;;;;;;10313384;28;20233;-78
2022/06/27 13:54:45;;;;;;;6.63;3.03;;;32.00;99.90;;;;;;10314131;28;20199;-82
2022/06/27 14:00:08;;;;;;;7.85;3.15;;;32.20;99.90;;;;;;10319307;28;20234;-81
2022/06/27 14:05:30;;;;;;;3.53;2.65;;;32.10;99.90;;;;;;10299503;28;20489;-80
2022/06/27 14:10:56;;;;;;;4.38;2.40;;;32.10;99.90;;;;;;10288270;28;20218;-82
2022/06/27 14:16:20;;;;;;;6.40;3.05;;;32.30;99.90;;;;;;10314939;28;20230;-90
2022/06/27 14:21:42;;;;;;;5.20;2.80;;;32.20;99.90;;;;;;10311867;28;20378;-88
2022/06/27 14:27:04;;;;;;;5.93;2.72;;;31.90;99.90;;;;;;10301419;28;20229;-78
2022/06/27 14:32:25;;;;;;;5.43;3.10;;;31.80;99.90;;;;;;10297884;28;20230;-78
2022/06/27 14:37:47;;;;;;;4.60;2.72;;;31.80;99.90;;;;;;10313697;28;20485;-78
2022/06/27 14:43:08;;;;;;;5.32;2.60;;;31.80;99.90;;;;;;10296479;28;20245;-80
2022/06/27 14:48:29;;;;;;;7.72;3.15;;;31.60;99.90;;;;;;10279625;28;20238;-83
2022/06/27 14:53:51;;;;;;;2.78;2.40;;;31.50;99.90;;;;;;10279644;28;20282;-79
2022/06/27 14:59:17;;;;;;;8.38;3.05;;;31.40;99.90;;;;;;10347022;28;20288;-83
2022/06/27 15:04:39;;;;;;;3.97;2.90;;;31.40;99.90;;;;;;10288072;28;20194;-83
2022/06/27 15:10:01;;;;;;;4.82;3.45;;;31.30;99.90;;;;;;10316108;28;20408;-84
2022/06/27 15:15:22;;;;;;;3.03;2.58;;;31.20;99.90;;;;;;10316217;28;20442;-79
2022/06/27 15:20:43;;;;;;;9.38;2.95;;;31.00;99.90;;;;;;10317174;28;20279;-84
2022/06/27 15:26:05;;;;;;;6.18;2.75;;;31.00;99.90;;;;;;10314986;28;20194;-80
2022/06/27 15:31:26;;;;;;;8.35;2.67;;;30.90;99.90;;;;;;10311307;28;20237;-78
2022/06/27 15:36:48;;;;;;;4.53;2.95;;;30.70;99.90;;;;;;10311471;28;20190;-79
2022/06/27 15:42:10;;;;;;;5.03;3.17;;;30.60;99.90;;;;;;10311689;28;20392;-77
2022/06/27 15:47:31;;;;;;;5.35;2.72;;;30.60;99.90;;;;;;10314792;28;20249;-80
2022/06/27 15:52:53;;;;;;;4.38;2.85;;;30.60;99.90;;;;;;10314599;28;20206;-77
2022/06/27 15:58:15;;;;;;;5.38;2.83;;;30.50;99.90;;;;;;10333053;28;20245;-79
2022/06/27 16:03:37;;;;;;;4.32;2.88;;;30.50;99.90;;;;;;10314056;28;20195;-81
2022/06/27 16:08:58;;;;;;;2.90;2.65;;;30.40;99.90;;;;;;10297019;28;20225;-82
2022/06/27 16:14:20;;;;;;;6.60;3.08;;;30.40;99.90;;;;;;10299946;28;20190;-81
2022/06/27 16:19:42;;;;;;;4.95;2.47;;;30.40;99.90;;;;;;10298913;28;20535;-83
2022/06/27 16:25:16;;;;;;;7.78;3.10;;;30.50;99.90;;;;;;10290808;28;20231;-83
2022/06/27 16:36:18;;;;;;;5.90;3.28;;;30.10;99.90;;;;;;10331090;28;20195;-80
2022/06/27 16:47:19;;;;;;;5.45;3.28;;;29.80;99.90;;;;;;10302319;28;20299;-81
2022/06/27 16:52:41;;;;;;;3.92;3.03;;;29.70;99.90;;;;;;10306058;28;20194;-83
2022/06/27 16:58:04;;;;;;;4.22;2.90;;;29.70;99.90;;;;;;10336534;28;20387;-82
2022/06/27 17:03:26;;;;;;;4.55;2.50;;;29.70;99.90;;;;;;10308011;28;20207;-82
2022/06/27 17:08:48;;;;;;;3.58;2.60;;;29.70;99.90;;;;;;10290985;28;20459;-81
2022/06/27 17:14:12;;;;;;;5.05;2.80;;;29.60;99.90;;;;;;10279962;28;20266;-82
2022/06/27 17:19:34;;;;;;;5.07;3.05;;;29.50;99.90;;;;;;10319873;28;20194;-79
2022/06/27 17:24:56;;;;;;;12.70;2.70;;;29.50;99.90;;;;;;10299596;28;20225;-80
2022/06/27 17:30:18;;;;;;;4.45;3.10;;;29.50;99.90;;;;;;10302525;28;20241;-82
2022/06/27 17:35:42;;;;;;;5.45;3.10;;;29.50;99.90;;;;;;10316744;28;20194;-84
2022/06/27 17:41:04;;;;;;;5.47;2.80;;;29.30;99.90;;;;;;10319008;28;20194;-78
2022/06/27 17:46:26;;;;;;;2.80;2.58;;;29.20;99.90;;;;;;10303770;28;20186;-79
2022/06/27 17:51:47;;;;;;;9.45;3.08;;;29.10;99.90;;;;;;10302038;28;20245;-78
2022/06/27 17:57:09;;;;;;;12.52;4.03;;;29.00;99.90;;;;;;10320497;28;20210;-79
2022/06/27 18:02:31;;;;;;;7.10;3.25;;;28.80;99.90;;;;;;10297635;28;20391;-81
2022/06/27 18:07:53;;;;;;;6.80;3.33;;;28.70;99.90;;;;;;10318213;28;20226;-82
2022/06/27 18:13:15;;;;;;;4.57;2.83;;;28.60;99.90;;;;;;10297098;28;20197;-79
2022/06/27 18:18:37;;;;;;;8.82;3.17;;;28.50;99.90;;;;;;10317883;28;20249;-80
2022/06/27 18:24:13;;;;;;;5.45;2.90;;;28.40;99.90;;;;;;10560642;28;20550;-76
2022/06/27 18:29:35;;;;;;;9.63;3.67;;;;;;;;;;10514953;28;20199;-77
2022/06/27 18:34:56;;;;;;;4.30;2.80;;;28.20;99.90;;;;;;10513119;28;20199;-78
2022/06/27 18:40:18;;;;;;;8.35;2.90;;;;;;;;;;10513708;28;20250;-79
2022/06/27 18:45:40;;;;;;;3.95;2.80;;;28.00;99.90;;;;;;10513319;28;20187;-83
2022/06/27 18:51:02;;;;;;;5.30;2.92;;;27.70;99.90;;;;;;10513001;28;20195;-79
2022/06/27 18:56:24;;;;;;;4.15;3.22;;;27.70;99.90;;;;;;10527388;28;20426;-78
2022/06/27 19:01:45;;;;;;;3.38;3.00;;;27.50;99.90;;;;;;10546361;28;20295;-77
2022/06/27 19:07:06;;;;;;;3.97;2.65;;;27.40;99.90;;;;;;10499163;28;20202;-76
2022/06/27 19:12:28;;;;;;;9.45;3.95;;;27.20;99.90;;;;;;10497286;28;20214;-79
2022/06/27 19:17:49;;;;;;;6.13;3.88;;;27.10;99.90;;;;;;10525228;28;20478;-79
2022/06/27 19:23:12;;;;;;;6.90;4.00;;;27.00;99.90;;;;;;10510374;28;20307;-82
2022/06/27 19:28:34;;;;;;;8.00;3.50;;;26.90;99.90;;;;;;10519585;28;20233;-81
2022/06/27 19:33:55;;;;;;;11.45;3.72;;;26.80;99.90;;;;;;10492846;28;20187;-81
2022/06/27 19:39:17;;;;;;;8.38;3.65;;;26.70;99.90;;;;;;10482793;28;20203;-82
2022/06/27 19:44:38;;;;;;;4.53;3.65;;;26.60;99.90;;;;;;10442401;28;20185;-81
2022/06/27 19:50:01;;;;;;;9.65;3.42;;;26.50;99.90;;;;;;10447153;28;20479;-82
2022/06/27 19:55:22;;;;;;;12.52;6.22;;;26.30;1.00;;;;;;10488925;28;20225;-83
2022/06/27 20:00:48;;;;;;;6.63;3.33;;;26.20;1.00;;;;;;10511201;28;20229;-81
2022/06/27 20:06:09;;;;;;;11.48;4.13;;;26.10;1.00;;;;;;10441640;28;20199;-77
2022/06/27 20:11:31;;;;;;;7.15;3.80;;;26.00;1.00;;;;;;10473884;28;20207;-79
2022/06/27 20:16:54;;;;;;;6.13;3.70;;;25.90;1.00;;;;;;10495633;28;20251;-82
2022/06/27 20:22:18;;;;;;;5.80;3.83;;;25.80;1.00;;;;;;10480821;28;20354;-83
2022/06/27 20:27:40;;;;;;;6.80;3.78;;;25.80;1.00;;;;;;10513746;28;20195;-79
2022/06/27 20:33:01;;;;;;;3.70;3.05;;;25.70;1.00;;;;;;10497157;28;20191;-81
2022/06/27 20:38:23;;;;;;;5.28;3.80;;;25.60;1.00;;;;;;10495072;28;20311;-81
2022/06/27 20:43:46;;;;;;;5.53;3.65;;;25.60;99.90;;;;;;10480029;28;20219;-81
2022/06/27 20:49:08;;;;;;;8.20;4.10;;;25.50;99.90;;;;;;10452417;28;20207;-81
2022/06/27 20:54:30;;;;;;;5.00;3.55;;;25.40;99.90;;;;;;10480976;28;20215;-80
2022/06/27 20:59:52;;;;;;;6.07;3.47;;;25.30;1.00;;;;;;10443452;28;20208;-81
2022/06/27 21:05:16;;;;;;;7.25;3.50;;;25.30;1.00;;;;;;10445427;28;20502;-80
2022/06/27 21:16:17;;;;;;;5.63;3.50;;;25.20;34.30;;;;;;10480394;28;20192;-82
2022/06/27 21:21:43;;;;;;;4.13;3.42;;;25.10;99.90;;;;;;10479561;28;20306;-79
2022/06/27 21:27:06;;;;;;;6.10;3.72;;;25.00;1.00;;;;;;10517601;28;20270;-78
2022/06/27 21:32:28;;;;;;;8.43;3.38;;;24.90;1.00;;;;;;10479233;28;20198;-80
2022/06/27 21:37:51;;;;;;;3.38;3.08;;;24.90;99.90;;;;;;10479624;28;20184;-81
2022/06/27 21:43:13;;;;;;;5.22;3.58;;;24.80;1.00;;;;;;10478154;28;20258;-82
2022/06/27 21:48:35;;;;;;;4.80;3.00;;;24.80;99.90;;;;;;10479043;28;20207;-82
2022/06/27 21:53:56;;;;;;;4.13;3.72;;;24.70;99.90;;;;;;10478138;28;20192;-77
2022/06/27 21:59:18;;;;;;;4.53;4.00;;;24.70;99.90;;;;;;10515686;28;20460;-79
2022/06/27 22:04:39;;;;;;;7.68;4.32;;;24.60;1.00;;;;;;10447925;28;20389;-81
2022/06/27 22:10:01;;;;;;;7.40;4.50;;;24.50;1.00;;;;;;10456966;28;20196;-76
2022/06/27 22:15:24;;;;;;;9.18;4.50;;;24.50;1.00;;;;;;10478563;28;20188;-78
2022/06/27 22:20:48;;;;;;;5.80;4.30;;;24.40;99.90;;;;;;10491147;28;20266;-81
2022/06/27 22:33:07;;;;;;;4.85;3.42;;;24.30;99.90;;;;;;10436684;28;20484;-81
2022/06/27 22:38:43;;;;;;;3.97;3.25;;;24.30;1.00;;;;;;10464644;28;20237;-80
2022/06/27 22:44:33;;;;;;;6.07;3.20;;;24.30;1.00;;;;;;10487184;28;20228;-80
2022/06/27 22:49:55;;;;;;;5.45;3.42;;;24.20;1.00;;;;;;10477330;28;20192;-81
2022/06/27 22:55:16;;;;;;;3.85;3.47;;;24.20;1.00;;;;;;10482194;28;20197;-81
2022/06/27 23:00:38;;;;;;;6.72;3.95;;;24.10;99.90;;;;;;10493702;28;20286;-81
2022/06/27 23:06:00;;;;;;;3.35;3.00;;;24.10;99.90;;;;;;10472567;28;20196;-82
2022/06/27 23:11:22;;;;;;;4.20;3.63;;;24.00;1.00;;;;;;10487227;28;20270;-76
2022/06/27 23:16:43;;;;;;;7.22;3.78;;;24.00;1.00;;;;;;10484799;28;20278;-77
2022/06/27 23:22:04;;;;;;;4.68;3.70;;;23.90;99.90;;;;;;10483994;28;20237;-75
2022/06/27 23:27:26;;;;;;;5.25;3.95;;;24.00;1.00;;;;;;10484104;28;20223;-76
2022/06/27 23:32:48;;;;;;;6.18;4.00;;;23.80;1.00;;;;;;10444268;28;20203;-77
2022/06/27 23:38:09;;;;;;;7.38;4.07;;;23.80;1.00;;;;;;10477527;28;20238;-77
2022/06/27 23:43:31;;;;;;;9.77;4.20;;;23.70;99.90;;;;;;10483292;28;20243;-78
2022/06/27 23:48:53;;;;;;;6.00;4.10;;;23.60;99.90;;;;;;10468344;28;20262;-76
2022/06/27 23:54:15;;;;;;;5.03;4.03;;;23.60;1.00;;;;;;10482992;28;20391;-76
2022/06/27 23:59:36;;;;;;;4.78;3.95;;;23.50;62.50;;;;;;10522096;28;20204;-77
